Time;durP1;ratioP1;P1;durP2;ratioP2;P2;SDS_P1;SDS_P2;PMS_P1;PMS_P2;Temp;Humidity;BMP_temperature;BMP_pressure;BME280_temperature;BME280_humidity;BME280_pressure;Samples;Min_cycle;Max_cycle;Signal;HPM_P1;HPM_P2
2022/12/27 00:00:17;;;;;;;1.43;0.70;;;;;;;8.44;100.00;97584.19;5006496;28;20213;-57
2022/12/27 00:02:43;;;;;;;1.60;0.93;;;;;;;8.49;100.00;97592.63;5021319;28;20220;-58
2022/12/27 00:05:12;;;;;;;0.67;0.40;;;;;;;8.49;100.00;97587.34;5007194;28;20201;-56
2022/12/27 00:07:38;;;;;;;0.60;0.60;;;;;;;8.38;100.00;97595.16;5023463;28;20196;-56
2022/12/27 00:10:06;;;;;;;0.63;0.37;;;;;;;8.29;100.00;97588.72;5017778;28;20219;-57
2022/12/27 00:12:33;;;;;;;1.67;0.53;;;;;;;8.25;100.00;97594.28;5003366;28;20213;-57
2022/12/27 00:14:59;;;;;;;0.77;0.40;;;;;;;8.30;100.00;97602.75;5002983;28;20217;-57
2022/12/27 00:17:25;;;;;;;1.40;0.77;;;;;;;8.23;100.00;97596.16;5003251;28;20646;-57
2022/12/27 00:19:52;;;;;;;0.77;0.60;;;;;;;8.28;100.00;97602.88;5003663;28;20197;-57
2022/12/27 00:22:21;;;;;;;1.13;0.70;;;;;;;8.25;100.00;97600.41;5008828;28;20225;-59
2022/12/27 00:24:48;;;;;;;3.20;0.70;;;;;;;8.17;100.00;97601.88;5025024;28;20204;-58
2022/12/27 00:27:15;;;;;;;1.90;0.63;;;;;;;8.11;100.00;97603.16;5026560;28;20188;-57
2022/12/27 00:29:41;;;;;;;0.63;0.60;;;;;;;8.18;100.00;97603.56;5021666;28;20196;-56
2022/12/27 00:32:07;;;;;;;1.40;0.60;;;;;;;8.11;100.00;97612.84;5002510;28;20208;-55
2022/12/27 00:34:34;;;;;;;1.30;0.50;;;;;;;8.06;100.00;97607.88;5002488;28;20209;-55
2022/12/27 00:37:01;;;;;;;1.37;0.40;;;;;;;8.00;100.00;97606.50;5002378;28;20197;-55
2022/12/27 00:39:28;;;;;;;1.60;0.80;;;;;;;7.99;100.00;97610.09;4996282;28;20815;-55
2022/12/27 00:41:55;;;;;;;0.50;0.50;;;;;;;7.93;100.00;97614.94;4989679;28;20239;-55
2022/12/27 00:44:21;;;;;;;0.77;0.50;;;;;;;7.87;100.00;97613.53;4989185;28;20248;-55
2022/12/27 00:46:48;;;;;;;0.87;0.43;;;;;;;7.94;100.00;97620.06;4984299;28;20213;-54
2022/12/27 00:49:14;;;;;;;0.90;0.70;;;;;;;7.96;100.00;97619.97;4988905;28;20213;-55
2022/12/27 00:51:41;;;;;;;1.17;0.47;;;;;;;7.92;100.00;97611.44;5013370;28;20211;-55
2022/12/27 00:54:07;;;;;;;1.03;0.60;;;;;;;7.93;100.00;97617.56;5014774;28;20209;-56
2022/12/27 00:56:35;;;;;;;1.70;0.60;;;;;;;7.91;100.00;97612.38;5016162;28;20207;-56
2022/12/27 00:59:03;;;;;;;1.13;0.57;;;;;;;7.90;100.00;97617.78;5014357;28;20252;-58
2022/12/27 01:01:31;;;;;;;1.53;0.70;;;;;;;7.79;100.00;97621.13;4992705;28;20522;-56
2022/12/27 01:03:58;;;;;;;4.00;1.00;;;;;;;7.79;100.00;97617.63;4992443;28;20224;-56
2022/12/27 01:06:27;;;;;;;4.20;0.83;;;;;;;7.79;100.00;97621.13;4992362;28;20209;-56
2022/12/27 01:08:54;;;;;;;1.30;0.70;;;;;;;7.86;100.00;97624.19;4992111;28;20218;-56
2022/12/27 01:11:21;;;;;;;2.80;0.80;;;;;;;7.83;100.00;97625.22;4992533;28;20253;-55
2022/12/27 01:13:49;;;;;;;1.73;0.63;;;;;;;7.91;100.00;97630.81;4992229;28;20212;-56
2022/12/27 01:16:18;;;;;;;0.50;0.50;;;;;;;7.86;100.00;97635.56;4992501;28;20197;-56
2022/12/27 01:18:45;;;;;;;1.20;0.70;;;;;;;7.81;100.00;97642.91;4991990;28;20194;-56
2022/12/27 01:21:13;;;;;;;2.93;0.93;;;;;;;7.89;100.00;97630.09;4991863;28;20973;-57
2022/12/27 01:23:40;;;;;;;2.03;0.63;;;;;;;7.88;100.00;97638.94;4992028;28;20566;-57
2022/12/27 01:26:11;;;;;;;0.37;0.37;;;;;;;7.86;100.00;97642.63;4991640;28;20653;-56
2022/12/27 01:28:38;;;;;;;0.73;0.50;;;;;;;7.86;100.00;97646.09;4991394;28;20645;-56
2022/12/27 01:31:07;;;;;;;3.13;1.00;;;;;;;7.85;100.00;97641.78;4992621;28;20201;-56
2022/12/27 01:33:34;;;;;;;1.47;0.70;;;;;;;7.83;100.00;97654.19;4991710;28;20201;-57
2022/12/27 01:36:08;;;;;;;1.77;0.70;;;;;;;7.81;100.00;97653.44;4993936;28;20310;-56
2022/12/27 01:38:34;;;;;;;0.60;0.53;;;;;;;7.87;100.00;97666.19;4994729;28;20198;-56
2022/12/27 01:42:50;;;;;;;1.43;0.57;;;;;;;7.79;100.00;97665.88;4997234;28;20224;-56
2022/12/27 01:43:47;;;;;;;2.90;0.73;;;;;;;7.78;100.00;97668.59;4997233;28;20296;-56
2022/12/27 01:46:15;;;;;;;3.53;0.83;;;;;;;7.78;100.00;97674.72;5000257;28;20276;-57
2022/12/27 01:48:41;;;;;;;1.30;0.80;;;;;;;7.73;100.00;97679.44;5010294;28;20211;-56
2022/12/27 01:51:08;;;;;;;0.93;0.80;;;;;;;7.77;100.00;97688.81;4994585;28;20213;-57
2022/12/27 01:53:37;;;;;;;1.93;0.70;;;;;;;7.72;100.00;97685.63;4993241;28;20213;-56
2022/12/27 01:56:05;;;;;;;1.60;0.60;;;;;;;7.64;100.00;97680.03;4993406;28;20201;-56
2022/12/27 01:58:34;;;;;;;0.70;0.60;;;;;;;7.65;100.00;97679.06;4993804;28;20214;-56
2022/12/27 02:01:01;;;;;;;3.40;1.10;;;;;;;7.64;100.00;97695.84;4991980;28;20202;-57
2022/12/27 02:03:32;;;;;;;2.23;0.83;;;;;;;7.64;100.00;97692.34;4991482;28;20229;-56
2022/12/27 02:06:00;;;;;;;1.50;0.50;;;;;;;7.58;100.00;97685.69;4991215;28;20542;-56
2022/12/27 02:08:34;;;;;;;1.00;0.60;;;;;;;7.55;100.00;97703.47;4991494;28;20224;-56
2022/12/27 02:11:01;;;;;;;1.17;0.57;;;;;;;7.54;100.00;97691.25;4990536;28;20537;-55
2022/12/27 02:13:29;;;;;;;1.33;0.63;;;;;;;7.50;100.00;97706.41;4992091;28;21336;-56
2022/12/27 02:15:55;;;;;;;4.70;1.03;;;;;;;7.50;100.00;97711.69;4991612;28;20297;-57
2022/12/27 02:18:22;;;;;;;1.63;0.80;;;;;;;7.44;100.00;97714.69;4991806;28;20209;-57
2022/12/27 02:21:21;;;;;;;1.53;0.60;;;;;;;7.42;100.00;97709.53;4991298;28;20300;-57
2022/12/27 02:24:03;;;;;;;0.60;0.50;;;;;;;7.45;100.00;97713.75;4994720;28;20952;-57
2022/12/27 02:26:39;;;;;;;1.23;0.67;;;;;;;7.45;100.00;97708.47;4998274;28;20215;-59
2022/12/27 02:29:24;;;;;;;3.57;1.03;;;;;;;7.43;100.00;97710.38;4998114;28;20204;-57
2022/12/27 02:31:56;;;;;;;0.97;0.80;;;;;;;7.50;100.00;97711.69;4993399;28;20200;-56
2022/12/27 02:34:26;;;;;;;2.37;0.67;;;;;;;7.54;100.00;97718.44;4997939;28;20224;-56
2022/12/27 02:36:57;;;;;;;0.63;0.50;;;;;;;7.46;100.00;97710.19;4997690;28;20212;-57
2022/12/27 02:39:25;;;;;;;0.90;0.60;;;;;;;7.46;100.00;97718.06;4998174;28;20200;-56
2022/12/27 02:53:03;;;;;;;1.60;0.53;;;;;;;7.33;100.00;97725.06;4997511;28;20739;-58
2022/12/27 02:55:35;;;;;;;3.53;1.10;;;;;;;7.30;100.00;97720.81;4997517;28;20558;-57
2022/12/27 02:58:11;;;;;;;1.43;0.77;;;;;;;7.29;100.00;97734.94;4996805;28;20291;-57
2022/12/27 03:03:42;;;;;;;1.23;0.90;;;;;;;7.31;100.00;97734.81;4997655;28;20416;-57
2022/12/27 03:06:42;;;;;;;5.60;1.00;;;;;;;7.33;100.00;97738.22;4997665;28;20537;-56
2022/12/27 03:18:13;;;;;;;3.63;0.80;;;;;;;7.36;100.00;97743.28;4997772;28;20321;-57
2022/12/27 03:26:10;;;;;;;1.20;0.63;;;;;;;7.32;100.00;97739.16;4997009;28;20284;-60
2022/12/27 03:39:56;;;;;;;1.27;0.90;;;;;;;7.06;100.00;97753.06;4993448;28;20309;-56
2022/12/27 03:45:09;;;;;;;0.90;0.60;;;;;;;6.94;100.00;97737.09;5003463;28;20243;-56
2022/12/27 03:47:38;;;;;;;2.03;0.73;;;;;;;6.92;100.00;97735.50;5003838;28;20224;-57
2022/12/27 03:50:09;;;;;;;0.53;0.50;;;;;;;6.83;100.00;97736.94;5003734;28;20211;-56
2022/12/27 03:52:40;;;;;;;3.23;0.83;;;;;;;6.75;100.00;97744.44;5003778;28;20205;-56
2022/12/27 03:55:07;;;;;;;2.20;1.00;;;;;;;6.63;100.00;97753.03;5003478;28;20220;-56
2022/12/27 03:57:34;;;;;;;1.60;0.60;;;;;;;6.58;100.00;97749.88;5003782;28;20209;-56
2022/12/27 04:00:00;;;;;;;4.57;0.90;;;;;;;6.49;100.00;97747.75;5003903;28;20212;-56
2022/12/27 04:02:27;;;;;;;1.70;0.73;;;;;;;6.40;100.00;97743.06;5003285;28;20671;-56
2022/12/27 04:04:53;;;;;;;4.27;0.90;;;;;;;6.27;100.00;97739.47;5003663;28;20212;-56
2022/12/27 04:07:21;;;;;;;1.20;0.80;;;;;;;6.20;100.00;97738.16;5003573;28;20216;-57
2022/12/27 04:34:40;;;;;;;2.30;1.03;;;;;;;5.71;100.00;97743.53;5003272;28;20220;-56
2022/12/27 04:37:07;;;;;;;1.37;0.80;;;;;;;5.77;100.00;97735.31;5002954;28;20208;-56
2022/12/27 04:39:35;;;;;;;3.50;0.70;;;;;;;5.78;100.00;97737.00;5002381;28;20219;-56
2022/12/27 04:55:56;;;;;;;1.73;0.90;;;;;;;5.93;100.00;97758.94;5002518;28;20599;-56
2022/12/27 04:58:24;;;;;;;3.03;0.73;;;;;;;5.90;100.00;97759.97;5003466;28;20212;-56
2022/12/27 05:03:35;;;;;;;3.07;0.63;;;;;;;5.88;100.00;97750.50;5002981;28;20691;-57
2022/12/27 05:06:02;;;;;;;2.80;0.77;;;;;;;5.89;100.00;97758.28;5002815;28;20220;-57
2022/12/27 05:14:01;;;;;;;1.50;0.70;;;;;;;6.02;100.00;97762.84;5002130;28;20215;-56
2022/12/27 05:16:28;;;;;;;2.73;1.20;;;;;;;6.09;100.00;97758.94;5002943;28;20213;-57
2022/12/27 05:18:54;;;;;;;2.97;1.17;;;;;;;6.05;100.00;97762.66;5002507;28;20552;-56
2022/12/27 05:21:21;;;;;;;3.90;0.70;;;;;;;6.03;100.00;97769.75;5001943;28;20201;-57
2022/12/27 05:26:33;;;;;;;1.47;0.60;;;;;;;6.09;100.00;97764.19;5001770;28;20335;-56
2022/12/27 05:29:00;;;;;;;1.93;1.03;;;;;;;6.09;100.00;97765.03;5001844;28;20197;-56
2022/12/27 05:31:27;;;;;;;4.37;0.90;;;;;;;6.16;100.00;97760.25;5001793;28;20203;-57
2022/12/27 05:33:54;;;;;;;1.23;0.77;;;;;;;6.21;100.00;97771.34;5002090;28;20197;-56
2022/12/27 05:36:21;;;;;;;2.10;1.27;;;;;;;6.18;100.00;97774.13;5001902;28;20575;-56
2022/12/27 05:38:48;;;;;;;1.33;0.53;;;;;;;6.18;100.00;97775.00;5001988;28;20679;-56
2022/12/27 05:41:14;;;;;;;2.87;1.00;;;;;;;6.13;100.00;97771.78;5001394;28;20201;-56
2022/12/27 05:43:42;;;;;;;1.27;0.90;;;;;;;6.18;100.00;97782.88;5001644;28;20241;-56
2022/12/27 05:46:10;;;;;;;0.80;0.70;;;;;;;6.21;100.00;97781.84;5002055;28;20209;-57
2022/12/27 05:48:37;;;;;;;1.10;1.00;;;;;;;6.27;100.00;97778.88;5002047;28;20211;-57
2022/12/27 05:51:08;;;;;;;4.67;1.10;;;;;;;6.27;100.00;97792.84;5001561;28;20200;-56
2022/12/27 05:53:34;;;;;;;2.37;1.33;;;;;;;6.28;100.00;97788.44;5001989;28;20213;-56
2022/12/27 05:56:01;;;;;;;2.00;0.80;;;;;;;6.29;100.00;97792.75;5000505;28;20205;-56
2022/12/27 05:58:28;;;;;;;2.73;0.80;;;;;;;6.34;100.00;97794.16;5001174;28;20213;-57
2022/12/27 06:00:56;;;;;;;0.73;0.73;;;;;;;6.33;100.00;97778.50;5001356;28;20205;-57
2022/12/27 06:03:23;;;;;;;3.87;0.83;;;;;;;6.29;100.00;97779.63;5002367;28;20324;-57
2022/12/27 06:05:49;;;;;;;2.30;0.97;;;;;;;6.32;100.00;97784.69;5001879;28;20216;-57
2022/12/27 06:08:16;;;;;;;1.57;0.67;;;;;;;6.30;100.00;97776.06;5001942;28;20215;-56
2022/12/27 06:10:42;;;;;;;2.27;0.90;;;;;;;6.36;100.00;97784.44;5006410;28;20200;-56
2022/12/27 06:13:09;;;;;;;2.30;0.97;;;;;;;6.42;100.00;97788.47;5008562;28;20216;-56
2022/12/27 06:15:36;;;;;;;1.07;0.97;;;;;;;6.36;100.00;97783.59;5008442;28;20197;-57
2022/12/27 06:18:05;;;;;;;1.10;0.90;;;;;;;6.40;100.00;97793.84;5008191;28;20201;-56
2022/12/27 06:20:32;;;;;;;2.63;0.90;;;;;;;6.47;100.00;97802.19;5004118;28;20280;-56
2022/12/27 06:22:59;;;;;;;1.50;0.90;;;;;;;6.56;100.00;97801.66;5006974;28;20233;-57
2022/12/27 06:25:26;;;;;;;3.13;1.27;;;;;;;6.55;100.00;97802.59;5005595;28;20208;-58
2022/12/27 06:27:52;;;;;;;1.97;0.97;;;;;;;6.53;100.00;97799.22;5005406;28;20541;-58
2022/12/27 06:30:19;;;;;;;1.43;0.93;;;;;;;6.58;100.00;97805.06;5002313;28;20219;-56
2022/12/27 06:32:46;;;;;;;3.27;1.43;;;;;;;6.58;100.00;97815.56;5002418;28;20212;-57
2022/12/27 06:35:14;;;;;;;3.50;1.10;;;;;;;6.67;100.00;97804.50;5002764;28;20594;-57
2022/12/27 06:37:41;;;;;;;2.70;1.00;;;;;;;6.67;100.00;97804.50;5001800;28;20544;-57
2022/12/27 06:40:08;;;;;;;1.57;0.80;;;;;;;6.64;100.00;97815.19;5000695;28;20209;-57
2022/12/27 06:42:35;;;;;;;1.57;0.90;;;;;;;6.70;100.00;97814.81;5001574;28;20216;-57
2022/12/27 06:45:04;;;;;;;2.43;0.97;;;;;;;6.64;100.00;97807.31;4992004;28;20232;-58
2022/12/27 06:47:31;;;;;;;1.47;0.90;;;;;;;6.71;100.00;97806.00;4991018;28;20217;-57
2022/12/27 06:49:57;;;;;;;1.50;1.23;;;;;;;6.70;100.00;97800.84;4991230;28;20541;-57
2022/12/27 06:52:25;;;;;;;2.73;1.00;;;;;;;6.65;100.00;97806.38;4993739;28;20209;-57
2022/12/27 06:54:51;;;;;;;2.33;0.97;;;;;;;6.60;100.00;97813.69;5005767;28;20277;-56
2022/12/27 06:57:18;;;;;;;3.73;1.60;;;;;;;6.60;100.00;97808.41;5010344;28;20253;-57
2022/12/27 06:59:44;;;;;;;1.77;0.70;;;;;;;6.64;100.00;97817.81;5015380;28;20256;-57
2022/12/27 07:02:11;;;;;;;0.83;0.70;;;;;;;6.60;100.00;97818.94;5017285;28;20174;-57
2022/12/27 07:04:38;;;;;;;1.03;0.80;;;;;;;6.64;100.00;97822.22;4997845;28;20251;-57
2022/12/27 07:07:05;;;;;;;2.30;0.93;;;;;;;6.68;100.00;97829.84;4991693;28;20523;-57
2022/12/27 07:09:33;;;;;;;2.47;0.90;;;;;;;6.67;100.00;97829.94;4993571;28;20284;-57
2022/12/27 07:11:59;;;;;;;2.53;0.90;;;;;;;6.69;100.00;97831.56;4994151;28;20642;-57
2022/12/27 07:14:26;;;;;;;2.63;1.00;;;;;;;6.66;100.00;97834.34;4994378;28;20700;-57
2022/12/27 07:16:52;;;;;;;4.00;0.70;;;;;;;6.66;100.00;97839.59;4994189;28;20208;-57
2022/12/27 07:19:19;;;;;;;1.27;0.77;;;;;;;6.65;100.00;97845.81;4995032;28;20224;-57
2022/12/27 07:21:45;;;;;;;1.30;0.70;;;;;;;6.65;100.00;97847.59;4995274;28;20217;-56
2022/12/27 07:24:12;;;;;;;1.73;0.70;;;;;;;6.69;100.00;97843.84;4995056;28;20232;-56
2022/12/27 07:26:40;;;;;;;2.20;0.93;;;;;;;6.70;100.00;97845.53;4995495;28;20201;-56
2022/12/27 07:29:06;;;;;;;1.40;0.83;;;;;;;6.70;100.00;97846.38;4995522;28;20834;-56
2022/12/27 07:31:33;;;;;;;1.83;0.70;;;;;;;6.66;100.00;97850.09;4994811;28;20239;-56
2022/12/27 07:34:02;;;;;;;1.73;0.97;;;;;;;6.70;100.00;97851.63;4995356;28;20556;-56
2022/12/27 07:36:30;;;;;;;0.90;0.73;;;;;;;6.71;100.00;97861.22;4994769;28;20228;-55
2022/12/27 07:38:57;;;;;;;2.43;0.70;;;;;;;6.72;100.00;97865.53;4995567;28;20210;-56
2022/12/27 07:41:25;;;;;;;1.73;1.10;;;;;;;6.72;100.00;97860.28;4994520;28;20205;-56
2022/12/27 07:43:52;;;;;;;2.80;1.33;;;;;;;6.77;100.00;97868.72;4995271;28;20233;-57
2022/12/27 07:46:20;;;;;;;1.13;0.97;;;;;;;6.82;100.00;97864.06;4995752;28;20198;-57
2022/12/27 07:48:47;;;;;;;2.83;1.13;;;;;;;6.86;100.00;97862.94;4996564;28;20217;-57
2022/12/27 07:51:15;;;;;;;4.63;1.10;;;;;;;6.91;100.00;97863.50;4996053;28;20610;-58
2022/12/27 07:53:41;;;;;;;3.17;1.47;;;;;;;7.03;100.00;97858.47;4996548;28;20205;-57
2022/12/27 07:56:08;;;;;;;2.77;1.00;;;;;;;7.09;100.00;97858.09;4995583;28;20221;-57
2022/12/27 07:58:38;;;;;;;1.23;0.70;;;;;;;7.12;100.00;97863.19;4995810;28;20228;-56
2022/12/27 08:01:07;;;;;;;1.40;0.80;;;;;;;7.10;100.00;97858.00;4995470;28;20216;-57
2022/12/27 08:03:34;;;;;;;4.73;1.27;;;;;;;7.07;100.00;97859.97;4995455;28;20683;-58
2022/12/27 08:06:00;;;;;;;3.70;1.00;;;;;;;7.03;100.00;97861.09;4994288;28;20201;-57
2022/12/27 08:08:32;;;;;;;1.00;0.70;;;;;;;6.99;100.00;97863.06;4994051;28;20212;-57
2022/12/27 08:10:58;;;;;;;3.27;1.13;;;;;;;6.90;100.00;97848.69;4993412;28;20212;-56
2022/12/27 08:13:25;;;;;;;1.43;0.87;;;;;;;6.93;100.00;97856.41;4994018;28;20209;-56
2022/12/27 08:15:52;;;;;;;1.67;1.20;;;;;;;6.94;100.00;97863.31;4993627;28;20316;-56
2022/12/27 08:18:20;;;;;;;1.57;0.87;;;;;;;6.90;100.00;97859.22;4993809;28;20231;-56
2022/12/27 08:20:46;;;;;;;3.60;1.07;;;;;;;6.91;100.00;97862.66;4992608;28;20212;-56
2022/12/27 08:23:13;;;;;;;2.37;0.90;;;;;;;6.88;100.00;97862.84;4993400;28;20205;-57
2022/12/27 08:25:39;;;;;;;4.23;1.10;;;;;;;6.92;100.00;97867.84;4993763;28;20224;-56
2022/12/27 08:28:08;;;;;;;3.57;1.30;;;;;;;6.90;100.00;97868.88;4994361;28;20201;-57
2022/12/27 08:30:34;;;;;;;1.57;0.90;;;;;;;6.92;100.00;97867.00;4994217;28;20216;-57
2022/12/27 08:33:03;;;;;;;5.33;1.50;;;;;;;6.91;100.00;97871.41;4994388;28;20213;-57
2022/12/27 08:35:31;;;;;;;1.60;0.77;;;;;;;6.95;100.00;97872.06;4994519;28;20275;-56
2022/12/27 08:38:01;;;;;;;2.97;1.00;;;;;;;6.93;100.00;97872.16;4993954;28;20213;-57
2022/12/27 08:40:27;;;;;;;8.67;6.47;;;;;;;6.91;100.00;97871.41;4994051;28;20691;-57
2022/12/27 08:42:54;;;;;;;4.07;3.67;;;;;;;6.98;100.00;97861.34;4993559;28;20220;-57
2022/12/27 08:45:22;;;;;;;4.37;1.00;;;;;;;7.00;100.00;97865.63;4996666;28;20758;-57
2022/12/27 08:47:48;;;;;;;3.03;1.73;;;;;;;7.02;100.00;97865.50;4996104;28;20246;-57
2022/12/27 08:50:15;;;;;;;4.33;1.73;;;;;;;7.11;100.00;97866.75;4993758;28;20205;-56
2022/12/27 08:52:42;;;;;;;1.50;1.17;;;;;;;7.08;100.00;97869.56;4993445;28;20645;-57
2022/12/27 08:55:09;;;;;;;2.60;0.80;;;;;;;7.11;100.00;97869.38;4992984;28;20216;-57
2022/12/27 08:57:37;;;;;;;2.47;1.10;;;;;;;7.17;100.00;97867.22;4993981;28;20213;-57
2022/12/27 09:00:05;;;;;;;2.60;1.13;;;;;;;7.17;100.00;97876.91;4993518;28;20209;-58
2022/12/27 09:02:32;;;;;;;2.47;0.93;;;;;;;7.21;100.00;97875.78;4993297;28;20215;-57
2022/12/27 09:04:58;;;;;;;1.90;0.87;;;;;;;7.22;100.00;97875.69;4994449;28;20244;-57
2022/12/27 09:07:24;;;;;;;1.47;0.63;;;;;;;7.19;100.00;97875.03;4993283;28;20228;-58
2022/12/27 09:09:52;;;;;;;2.23;0.93;;;;;;;7.18;100.00;97879.44;4993026;28;20216;-58
2022/12/27 09:12:19;;;;;;;1.00;0.87;;;;;;;7.22;100.00;97880.09;4992489;28;20216;-58
2022/12/27 09:14:47;;;;;;;2.20;0.93;;;;;;;7.30;100.00;97877.84;4992569;28;20661;-57
2022/12/27 09:17:13;;;;;;;2.13;1.00;;;;;;;7.34;100.00;97887.25;4993997;28;20204;-58
2022/12/27 09:19:40;;;;;;;0.63;0.57;;;;;;;7.27;100.00;97883.28;4992068;28;20211;-57
2022/12/27 09:22:06;;;;;;;1.50;0.70;;;;;;;7.25;100.00;97887.81;4994413;28;20243;-57
2022/12/27 09:24:33;;;;;;;1.63;0.63;;;;;;;7.26;100.00;97889.50;5011929;28;20219;-57
2022/12/27 09:27:01;;;;;;;1.90;0.70;;;;;;;7.27;100.00;97891.19;5010219;28;20205;-57
2022/12/27 09:29:27;;;;;;;3.53;1.57;;;;;;;7.23;100.00;97887.88;5011100;28;20277;-56
2022/12/27 09:31:54;;;;;;;2.57;1.20;;;;;;;7.24;100.00;97886.97;4996140;28;20205;-57
2022/12/27 09:34:20;;;;;;;3.93;0.97;;;;;;;7.39;100.00;97893.94;4992942;28;20220;-57
2022/12/27 09:36:47;;;;;;;3.53;0.77;;;;;;;7.50;100.00;97898.56;4992783;28;20224;-57
2022/12/27 09:39:14;;;;;;;0.83;0.80;;;;;;;7.60;100.00;97897.03;4993086;28;20208;-57
2022/12/27 09:41:48;;;;;;;1.13;1.00;;;;;;;7.66;100.00;97903.72;4993179;28;20205;-57
2022/12/27 09:44:19;;;;;;;4.23;1.10;;;;;;;7.76;100.00;97903.03;4999974;28;20231;-57
2022/12/27 09:46:48;;;;;;;1.67;1.10;;;;;;;7.91;100.00;97915.28;5004127;28;20236;-57
2022/12/27 09:49:18;;;;;;;3.73;0.93;;;;;;;8.03;100.00;97905.75;5009207;28;20565;-58
2022/12/27 09:51:48;;;;;;;2.13;0.80;;;;;;;8.23;100.00;97888.66;5003140;28;20209;-58
2022/12/27 09:54:17;;;;;;;1.53;0.80;;;;;;;8.52;100.00;97892.09;5004013;28;20205;-57
2022/12/27 09:56:44;;;;;;;1.20;1.10;;;;;;;8.57;100.00;97888.25;5004034;28;20212;-57
2022/12/27 09:59:22;;;;;;;1.60;1.00;;;;;;;8.50;100.00;97885.13;5003233;28;20260;-57
2022/12/27 10:01:48;;;;;;;2.97;0.90;;;;;;;8.73;100.00;97881.00;5002433;28;20200;-57
2022/12/27 10:04:16;;;;;;;2.10;1.03;;;;;;;8.86;100.00;97871.31;5001249;28;20228;-56
2022/12/27 10:06:58;;;;;;;1.60;1.07;;;;;;;8.72;100.00;97873.16;5001983;28;20201;-57
2022/12/27 10:09:34;;;;;;;1.57;1.00;;;;;;;8.78;100.00;97871.00;5001796;28;20204;-57
2022/12/27 10:12:07;;;;;;;2.40;1.57;;;;;;;8.93;100.00;97875.22;5001557;28;20207;-57
2022/12/27 10:14:47;;;;;;;2.53;1.60;;;;;;;9.00;100.00;97870.38;5001681;28;20240;-57
2022/12/27 10:17:20;;;;;;;1.50;0.87;;;;;;;8.97;100.00;97860.88;5001373;28;20648;-57
2022/12/27 10:19:51;;;;;;;3.00;1.07;;;;;;;8.97;100.00;97863.53;5002240;28;20229;-57
2022/12/27 10:22:23;;;;;;;1.90;0.93;;;;;;;8.86;100.00;97860.75;5001245;28;20651;-57
2022/12/27 10:24:53;;;;;;;3.07;0.90;;;;;;;8.76;100.00;97864.97;5001474;28;20217;-57
2022/12/27 10:27:22;;;;;;;1.33;0.83;;;;;;;8.78;100.00;97856.97;5001659;28;20563;-58
2022/12/27 10:29:52;;;;;;;1.83;0.70;;;;;;;8.65;98.85;97856.91;5001584;28;20736;-58
2022/12/27 10:32:18;;;;;;;1.07;0.70;;;;;;;8.66;97.05;97852.50;5001796;28;20204;-57
2022/12/27 10:34:45;;;;;;;1.40;0.90;;;;;;;8.68;99.06;97858.53;5001496;28;20544;-57
2022/12/27 10:37:14;;;;;;;3.00;0.90;;;;;;;8.85;97.22;97853.81;5000798;28;20633;-58
2022/12/27 10:39:41;;;;;;;1.17;0.73;;;;;;;8.92;93.13;97859.50;5000471;28;20204;-57
2022/12/27 10:42:13;;;;;;;2.47;1.20;;;;;;;9.16;91.58;97851.72;5000902;28;20553;-57
2022/12/27 10:44:40;;;;;;;3.60;1.17;;;;;;;9.29;92.60;97844.66;4995453;28;20232;-58
2022/12/27 10:47:08;;;;;;;3.73;1.13;;;;;;;9.36;87.58;97835.34;4996063;28;20217;-57
2022/12/27 10:49:35;;;;;;;1.67;0.73;;;;;;;9.52;90.76;97843.91;4995141;28;20212;-58
2022/12/27 10:52:07;;;;;;;2.83;0.93;;;;;;;9.73;84.33;97845.03;4995464;28;20205;-57
2022/12/27 10:54:34;;;;;;;2.63;0.73;;;;;;;9.86;82.54;97832.63;4994637;28;20204;-57
2022/12/27 10:57:17;;;;;;;2.33;0.80;;;;;;;9.85;84.98;97827.44;4995072;28;20209;-57
2022/12/27 10:59:44;;;;;;;3.17;0.90;;;;;;;9.62;87.10;97823.81;4995176;28;20196;-58
2022/12/27 11:02:19;;;;;;;1.60;0.67;;;;;;;9.51;86.64;97834.28;4995381;28;20205;-57
2022/12/27 11:04:57;;;;;;;2.40;1.30;;;;;;;9.36;88.81;97822.16;4995495;28;20242;-57
2022/12/27 11:07:28;;;;;;;2.57;0.90;;;;;;;9.27;87.68;97823.66;4994518;28;20236;-58
2022/12/27 11:10:06;;;;;;;1.87;0.67;;;;;;;9.12;94.96;97813.28;4995723;28;20269;-57
2022/12/27 11:12:32;;;;;;;1.97;0.63;;;;;;;9.11;94.76;97828.28;4995362;28;20201;-56
2022/12/27 11:15:00;;;;;;;1.77;1.07;;;;;;;9.00;93.38;97836.94;4995305;28;20518;-58
2022/12/27 11:17:33;;;;;;;1.60;1.20;;;;;;;9.11;92.85;97837.97;4995234;28;20280;-58
2022/12/27 11:20:20;;;;;;;2.63;1.00;;;;;;;9.18;94.38;97833.97;4995158;28;20205;-57
2022/12/27 11:22:48;;;;;;;1.27;1.17;;;;;;;9.27;94.14;97836.00;4994927;28;20250;-58
2022/12/27 11:25:15;;;;;;;1.83;1.20;;;;;;;9.15;95.30;97835.03;4994490;28;20224;-58
2022/12/27 11:27:45;;;;;;;2.43;1.20;;;;;;;8.93;97.25;97830.38;4994664;28;20208;-57
2022/12/27 11:30:21;;;;;;;2.47;1.27;;;;;;;8.97;98.67;97837.13;4996796;28;20213;-57
2022/12/27 11:32:49;;;;;;;2.80;1.30;;;;;;;8.86;97.46;97829.09;4994965;28;20201;-57
2022/12/27 11:35:17;;;;;;;1.97;1.37;;;;;;;8.92;97.99;97828.72;4995492;28;20209;-57
2022/12/27 11:37:43;;;;;;;1.37;1.27;;;;;;;8.98;99.07;97828.28;4994810;28;20544;-58
2022/12/27 11:40:22;;;;;;;2.23;1.17;;;;;;;8.90;96.72;97822.69;4993898;28;20224;-58
2022/12/27 11:42:51;;;;;;;1.63;1.00;;;;;;;8.90;97.88;97820.03;4993623;28;20532;-56
2022/12/27 11:45:22;;;;;;;3.00;1.17;;;;;;;8.93;97.83;97811.91;5003223;28;20748;-58
2022/12/27 11:47:53;;;;;;;2.17;1.03;;;;;;;8.95;96.44;97809.19;5003591;28;20204;-56
2022/12/27 11:50:29;;;;;;;3.57;1.03;;;;;;;8.89;98.87;97806.97;5003288;28;20216;-57
2022/12/27 11:53:19;;;;;;;1.43;0.90;;;;;;;9.00;97.63;97799.13;5003170;28;20228;-56
2022/12/27 11:55:57;;;;;;;1.00;0.73;;;;;;;8.94;98.22;97810.97;5002613;28;20200;-57
2022/12/27 11:58:49;;;;;;;1.50;0.90;;;;;;;8.89;97.87;97807.78;5020981;28;20208;-57
2022/12/27 12:01:32;;;;;;;1.70;1.47;;;;;;;8.68;97.77;97809.22;5014891;28;20201;-56
2022/12/27 12:04:23;;;;;;;2.53;1.20;;;;;;;8.86;98.29;97805.38;5016964;28;20204;-57
2022/12/27 12:06:57;;;;;;;2.47;1.10;;;;;;;8.81;97.31;97809.28;5008642;28;20221;-58
2022/12/27 12:09:41;;;;;;;2.93;1.30;;;;;;;8.58;95.16;97813.44;5006127;28;20250;-58
2022/12/27 12:12:42;;;;;;;1.83;1.13;;;;;;;8.58;96.45;97813.44;5003882;28;20507;-58
2022/12/27 12:15:23;;;;;;;1.47;1.03;;;;;;;8.34;95.18;97809.78;5003780;28;20630;-58
2022/12/27 12:18:00;;;;;;;1.27;0.97;;;;;;;8.37;95.69;97806.94;5003984;28;20201;-58
2022/12/27 12:20:49;;;;;;;2.10;1.20;;;;;;;8.38;95.74;97793.69;5003722;28;20212;-57
2022/12/27 12:23:22;;;;;;;2.17;1.00;;;;;;;8.33;94.46;97792.28;5003857;28;20209;-57
2022/12/27 12:26:11;;;;;;;0.80;0.80;;;;;;;8.49;96.27;97792.97;5008579;28;20208;-58
2022/12/27 12:29:00;;;;;;;1.67;0.97;;;;;;;8.58;95.85;97788.84;5011365;28;20206;-57
2022/12/27 12:31:45;;;;;;;2.73;0.90;;;;;;;8.64;97.27;97797.22;5017088;28;20205;-56
2022/12/27 12:34:32;;;;;;;1.77;1.10;;;;;;;8.71;96.88;97793.22;5007315;28;20281;-58
2022/12/27 12:37:12;;;;;;;1.27;1.03;;;;;;;8.67;97.44;97791.75;5002821;28;20217;-58
2022/12/27 12:39:52;;;;;;;2.40;1.30;;;;;;;8.67;95.81;97786.47;5002695;28;20197;-57
2022/12/27 12:42:20;;;;;;;3.70;1.40;;;;;;;8.80;96.48;97791.75;5003534;28;20254;-56
2022/12/27 12:45:11;;;;;;;0.97;0.90;;;;;;;8.87;97.10;97793.88;5001894;28;20236;-57
2022/12/27 12:47:58;;;;;;;3.07;1.20;;;;;;;8.78;94.89;97791.88;5002180;28;20205;-57
2022/12/27 12:50:33;;;;;;;1.03;1.00;;;;;;;8.88;94.71;97795.56;5002399;28;20216;-57
2022/12/27 12:53:25;;;;;;;2.90;1.20;;;;;;;8.75;94.61;97792.06;5006969;28;20188;-58
2022/12/27 12:56:02;;;;;;;1.27;1.00;;;;;;;8.67;93.54;97791.75;5002328;28;20209;-58
2022/12/27 12:58:42;;;;;;;3.70;1.27;;;;;;;8.57;93.96;97785.41;5015184;28;20196;-58
2022/12/27 13:01:24;;;;;;;2.40;1.60;;;;;;;8.53;94.89;97783.91;5017498;28;20197;-57
2022/12/27 13:04:00;;;;;;;1.10;1.00;;;;;;;8.54;94.09;97780.31;5004295;28;20205;-58
2022/12/27 13:06:42;;;;;;;1.83;1.20;;;;;;;8.61;96.54;97792.13;5002512;28;20551;-57
2022/12/27 13:09:17;;;;;;;1.80;1.27;;;;;;;8.57;95.22;97784.56;5003438;28;20240;-57
2022/12/27 13:11:50;;;;;;;1.50;1.00;;;;;;;8.61;98.65;97784.22;5003304;28;20196;-56
2022/12/27 13:14:30;;;;;;;2.27;1.23;;;;;;;8.66;97.05;97783.94;5004094;28;20208;-57
2022/12/27 13:17:02;;;;;;;3.50;1.37;;;;;;;8.59;97.19;97783.50;5002412;28;20699;-57
2022/12/27 13:19:41;;;;;;;2.13;1.20;;;;;;;8.63;96.64;97779.72;5002365;28;20633;-58
2022/12/27 13:22:15;;;;;;;2.10;1.37;;;;;;;8.62;98.03;97778.00;5002719;28;20201;-58